sensor_id;sensor_type;location;lat;lon;timestamp;temperature;humidity
21487;DHT22;10905;50.822;4.336;2023-05-16T00:00:56;10.70;99.90
21487;DHT22;10905;50.822;4.336;2023-05-16T00:03:22;10.70;99.90
21487;DHT22;10905;50.822;4.336;2023-05-16T00:05:48;10.70;99.90
21487;DHT22;10905;50.822;4.336;2023-05-16T00:08:15;10.70;99.90
21487;DHT22;10905;50.822;4.336;2023-05-16T00:10:40;10.70;99.90
21487;DHT22;10905;50.822;4.336;2023-05-16T00:13:06;10.70;99.90
21487;DHT22;10905;50.822;4.336;2023-05-16T00:15:31;10.50;99.90
21487;DHT22;10905;50.822;4.336;2023-05-16T00:17:57;10.50;99.90
21487;DHT22;10905;50.822;4.336;2023-05-16T00:20:27;10.50;99.90
21487;DHT22;10905;50.822;4.336;2023-05-16T00:22:53;10.50;99.90
21487;DHT22;10905;50.822;4.336;2023-05-16T00:25:19;10.40;99.90
21487;DHT22;10905;50.822;4.336;2023-05-16T00:27:44;10.40;99.90
21487;DHT22;10905;50.822;4.336;2023-05-16T00:30:10;10.30;99.90
21487;DHT22;10905;50.822;4.336;2023-05-16T00:32:36;10.30;99.90
21487;DHT22;10905;50.822;4.336;2023-05-16T00:35:01;10.20;99.90
21487;DHT22;10905;50.822;4.336;2023-05-16T00:37:27;10.20;99.90
21487;DHT22;10905;50.822;4.336;2023-05-16T00:39:52;10.20;99.90
21487;DHT22;10905;50.822;4.336;2023-05-16T00:42:18;10.30;99.90
21487;DHT22;10905;50.822;4.336;2023-05-16T00:44:44;10.20;99.90
21487;DHT22;10905;50.822;4.336;2023-05-16T00:47:10;10.20;99.90
21487;DHT22;10905;50.822;4.336;2023-05-16T00:49:35;10.20;99.90
21487;DHT22;10905;50.822;4.336;2023-05-16T00:52:01;10.20;99.90
21487;DHT22;10905;50.822;4.336;2023-05-16T00:54:27;10.20;99.90
21487;DHT22;10905;50.822;4.336;2023-05-16T00:56:54;10.20;99.90
21487;DHT22;10905;50.822;4.336;2023-05-16T00:59:21;10.10;99.90
21487;DHT22;10905;50.822;4.336;2023-05-16T01:01:47;10.10;99.90
21487;DHT22;10905;50.822;4.336;2023-05-16T01:04:13;10.00;99.90
21487;DHT22;10905;50.822;4.336;2023-05-16T01:06:38;9.90;99.90
21487;DHT22;10905;50.822;4.336;2023-05-16T01:09:04;9.90;99.90
21487;DHT22;10905;50.822;4.336;2023-05-16T01:11:35;9.90;99.90
21487;DHT22;10905;50.822;4.336;2023-05-16T01:16:29;9.80;99.90
21487;DHT22;10905;50.822;4.336;2023-05-16T01:21:51;9.80;99.90
21487;DHT22;10905;50.822;4.336;2023-05-16T01:24:22;9.90;99.90
21487;DHT22;10905;50.822;4.336;2023-05-16T01:26:51;9.80;99.90
21487;DHT22;10905;50.822;4.336;2023-05-16T01:29:17;9.80;99.90
21487;DHT22;10905;50.822;4.336;2023-05-16T01:31:43;9.70;99.90
21487;DHT22;10905;50.822;4.336;2023-05-16T01:34:08;9.80;99.90
21487;DHT22;10905;50.822;4.336;2023-05-16T01:36:43;9.80;99.90
21487;DHT22;10905;50.822;4.336;2023-05-16T01:39:13;9.80;99.90
21487;DHT22;10905;50.822;4.336;2023-05-16T01:41:46;9.70;99.90
21487;DHT22;10905;50.822;4.336;2023-05-16T01:44:17;9.70;99.90
21487;DHT22;10905;50.822;4.336;2023-05-16T01:46:45;9.60;99.90
21487;DHT22;10905;50.822;4.336;2023-05-16T01:49:24;9.60;99.90
21487;DHT22;10905;50.822;4.336;2023-05-16T01:51:53;9.50;99.90
21487;DHT22;10905;50.822;4.336;2023-05-16T01:54:20;9.60;99.90
21487;DHT22;10905;50.822;4.336;2023-05-16T01:56:51;9.70;99.90
21487;DHT22;10905;50.822;4.336;2023-05-16T01:59:17;9.70;99.90
21487;DHT22;10905;50.822;4.336;2023-05-16T02:01:43;9.70;99.90
21487;DHT22;10905;50.822;4.336;2023-05-16T02:04:09;9.60;99.90
21487;DHT22;10905;50.822;4.336;2023-05-16T02:06:34;9.60;99.90
21487;DHT22;10905;50.822;4.336;2023-05-16T02:09:00;9.60;99.90
21487;DHT22;10905;50.822;4.336;2023-05-16T02:11:25;9.50;99.90
21487;DHT22;10905;50.822;4.336;2023-05-16T02:13:51;9.60;99.90
21487;DHT22;10905;50.822;4.336;2023-05-16T02:16:17;9.60;99.90
21487;DHT22;10905;50.822;4.336;2023-05-16T02:18:42;9.50;99.90
21487;DHT22;10905;50.822;4.336;2023-05-16T02:21:10;9.60;99.90
21487;DHT22;10905;50.822;4.336;2023-05-16T02:23:35;9.60;99.90
21487;DHT22;10905;50.822;4.336;2023-05-16T02:26:01;9.50;99.90
21487;DHT22;10905;50.822;4.336;2023-05-16T02:28:26;9.50;99.90
21487;DHT22;10905;50.822;4.336;2023-05-16T02:30:58;9.40;99.90
21487;DHT22;10905;50.822;4.336;2023-05-16T02:33:25;9.40;99.90
21487;DHT22;10905;50.822;4.336;2023-05-16T02:35:51;9.40;99.90
21487;DHT22;10905;50.822;4.336;2023-05-16T02:38:16;9.40;99.90
21487;DHT22;10905;50.822;4.336;2023-05-16T02:40:42;9.40;99.90
21487;DHT22;10905;50.822;4.336;2023-05-16T02:43:08;9.50;99.90
21487;DHT22;10905;50.822;4.336;2023-05-16T02:45:34;9.50;99.90
21487;DHT22;10905;50.822;4.336;2023-05-16T02:47:59;9.50;99.90
21487;DHT22;10905;50.822;4.336;2023-05-16T02:50:25;9.50;99.90
21487;DHT22;10905;50.822;4.336;2023-05-16T02:52:50;9.40;99.90
21487;DHT22;10905;50.822;4.336;2023-05-16T02:55:16;9.50;99.90
21487;DHT22;10905;50.822;4.336;2023-05-16T02:57:42;9.40;99.90
21487;DHT22;10905;50.822;4.336;2023-05-16T03:00:08;9.30;99.90
21487;DHT22;10905;50.822;4.336;2023-05-16T03:02:35;9.20;99.90
21487;DHT22;10905;50.822;4.336;2023-05-16T03:05:01;9.30;99.90
21487;DHT22;10905;50.822;4.336;2023-05-16T03:07:27;9.30;99.90
21487;DHT22;10905;50.822;4.336;2023-05-16T03:09:52;9.20;99.90
21487;DHT22;10905;50.822;4.336;2023-05-16T03:12:18;9.20;99.90
21487;DHT22;10905;50.822;4.336;2023-05-16T03:14:43;9.30;99.90
21487;DHT22;10905;50.822;4.336;2023-05-16T03:17:09;9.30;99.90
21487;DHT22;10905;50.822;4.336;2023-05-16T03:19:35;9.40;99.90
21487;DHT22;10905;50.822;4.336;2023-05-16T03:22:00;9.40;99.90
21487;DHT22;10905;50.822;4.336;2023-05-16T03:24:26;9.40;99.90
21487;DHT22;10905;50.822;4.336;2023-05-16T03:26:51;9.40;99.90
21487;DHT22;10905;50.822;4.336;2023-05-16T03:29:17;9.40;99.90
21487;DHT22;10905;50.822;4.336;2023-05-16T03:31:42;9.40;99.90
21487;DHT22;10905;50.822;4.336;2023-05-16T03:34:08;9.40;99.90
21487;DHT22;10905;50.822;4.336;2023-05-16T03:36:33;9.30;99.90
21487;DHT22;10905;50.822;4.336;2023-05-16T03:39:00;9.30;99.90
21487;DHT22;10905;50.822;4.336;2023-05-16T03:41:25;9.30;99.90
21487;DHT22;10905;50.822;4.336;2023-05-16T03:43:51;9.20;99.90
21487;DHT22;10905;50.822;4.336;2023-05-16T03:46:16;9.20;99.90
21487;DHT22;10905;50.822;4.336;2023-05-16T03:48:42;9.30;99.90
21487;DHT22;10905;50.822;4.336;2023-05-16T03:51:07;9.30;99.90
21487;DHT22;10905;50.822;4.336;2023-05-16T03:53:33;9.20;99.90
21487;DHT22;10905;50.822;4.336;2023-05-16T03:55:58;9.10;99.90
21487;DHT22;10905;50.822;4.336;2023-05-16T03:58:24;9.10;99.90
21487;DHT22;10905;50.822;4.336;2023-05-16T04:00:49;9.10;99.90
21487;DHT22;10905;50.822;4.336;2023-05-16T04:03:15;9.10;99.90
21487;DHT22;10905;50.822;4.336;2023-05-16T04:05:40;9.20;99.90
21487;DHT22;10905;50.822;4.336;2023-05-16T04:08:06;9.10;99.90
21487;DHT22;10905;50.822;4.336;2023-05-16T04:10:32;9.10;99.90
21487;DHT22;10905;50.822;4.336;2023-05-16T04:12:57;9.10;99.90
21487;DHT22;10905;50.822;4.336;2023-05-16T04:15:23;9.10;99.90
21487;DHT22;10905;50.822;4.336;2023-05-16T04:17:48;9.10;99.90
21487;DHT22;10905;50.822;4.336;2023-05-16T04:20:14;9.10;99.90
21487;DHT22;10905;50.822;4.336;2023-05-16T04:22:40;9.10;99.90
21487;DHT22;10905;50.822;4.336;2023-05-16T04:25:06;9.10;99.90
21487;DHT22;10905;50.822;4.336;2023-05-16T04:27:31;9.20;99.90
21487;DHT22;10905;50.822;4.336;2023-05-16T04:29:57;9.20;99.90
21487;DHT22;10905;50.822;4.336;2023-05-16T04:32:24;9.20;99.90
21487;DHT22;10905;50.822;4.336;2023-05-16T04:34:50;9.30;99.90
21487;DHT22;10905;50.822;4.336;2023-05-16T04:37:17;9.30;99.90
21487;DHT22;10905;50.822;4.336;2023-05-16T04:39:43;9.20;99.90
21487;DHT22;10905;50.822;4.336;2023-05-16T04:42:08;9.20;99.90
21487;DHT22;10905;50.822;4.336;2023-05-16T04:44:34;9.30;99.90
21487;DHT22;10905;50.822;4.336;2023-05-16T04:46:59;9.30;99.90
21487;DHT22;10905;50.822;4.336;2023-05-16T04:49:25;9.40;99.90
21487;DHT22;10905;50.822;4.336;2023-05-16T04:51:51;9.50;99.90
21487;DHT22;10905;50.822;4.336;2023-05-16T04:54:16;9.50;99.90
21487;DHT22;10905;50.822;4.336;2023-05-16T04:56:42;9.50;99.90
21487;DHT22;10905;50.822;4.336;2023-05-16T04:59:07;9.50;99.90
21487;DHT22;10905;50.822;4.336;2023-05-16T05:01:33;9.40;99.90
21487;DHT22;10905;50.822;4.336;2023-05-16T05:03:58;9.40;99.90
21487;DHT22;10905;50.822;4.336;2023-05-16T05:06:24;9.50;99.90
21487;DHT22;10905;50.822;4.336;2023-05-16T05:08:50;9.50;99.90
21487;DHT22;10905;50.822;4.336;2023-05-16T05:11:15;9.70;99.90
21487;DHT22;10905;50.822;4.336;2023-05-16T05:13:41;9.80;99.90
21487;DHT22;10905;50.822;4.336;2023-05-16T05:16:07;9.70;99.90
21487;DHT22;10905;50.822;4.336;2023-05-16T05:18:32;9.70;99.90
21487;DHT22;10905;50.822;4.336;2023-05-16T05:20:58;9.80;99.90
21487;DHT22;10905;50.822;4.336;2023-05-16T05:23:24;9.80;99.90
21487;DHT22;10905;50.822;4.336;2023-05-16T05:25:50;9.70;99.90
21487;DHT22;10905;50.822;4.336;2023-05-16T05:28:15;9.70;99.90
21487;DHT22;10905;50.822;4.336;2023-05-16T05:30:41;9.80;99.90
21487;DHT22;10905;50.822;4.336;2023-05-16T05:33:06;9.80;99.90
21487;DHT22;10905;50.822;4.336;2023-05-16T05:35:32;9.90;99.90
21487;DHT22;10905;50.822;4.336;2023-05-16T05:37:57;9.90;99.90
21487;DHT22;10905;50.822;4.336;2023-05-16T05:40:23;9.90;99.90
21487;DHT22;10905;50.822;4.336;2023-05-16T05:42:49;9.90;99.90
21487;DHT22;10905;50.822;4.336;2023-05-16T05:45:14;9.90;99.90
21487;DHT22;10905;50.822;4.336;2023-05-16T05:47:40;10.00;99.90
21487;DHT22;10905;50.822;4.336;2023-05-16T05:50:06;10.10;99.90
21487;DHT22;10905;50.822;4.336;2023-05-16T05:52:32;10.20;99.90
21487;DHT22;10905;50.822;4.336;2023-05-16T05:54:57;10.20;99.90
21487;DHT22;10905;50.822;4.336;2023-05-16T05:57:24;10.30;99.90
21487;DHT22;10905;50.822;4.336;2023-05-16T05:59:50;10.50;99.90
21487;DHT22;10905;50.822;4.336;2023-05-16T06:02:15;10.70;99.90
21487;DHT22;10905;50.822;4.336;2023-05-16T06:04:41;10.60;99.90
21487;DHT22;10905;50.822;4.336;2023-05-16T06:07:07;10.60;99.90
21487;DHT22;10905;50.822;4.336;2023-05-16T06:09:32;10.50;99.90
21487;DHT22;10905;50.822;4.336;2023-05-16T06:11:58;10.70;99.90
21487;DHT22;10905;50.822;4.336;2023-05-16T06:14:24;10.80;99.90
21487;DHT22;10905;50.822;4.336;2023-05-16T06:16:49;10.90;99.90
21487;DHT22;10905;50.822;4.336;2023-05-16T06:19:15;11.00;99.90
21487;DHT22;10905;50.822;4.336;2023-05-16T06:21:41;11.10;99.90
21487;DHT22;10905;50.822;4.336;2023-05-16T06:24:07;11.10;99.90
21487;DHT22;10905;50.822;4.336;2023-05-16T06:26:32;11.10;99.90
21487;DHT22;10905;50.822;4.336;2023-05-16T06:28:58;11.00;99.90
21487;DHT22;10905;50.822;4.336;2023-05-16T06:31:24;11.10;99.90
21487;DHT22;10905;50.822;4.336;2023-05-16T06:33:49;11.20;99.90
21487;DHT22;10905;50.822;4.336;2023-05-16T06:36:15;11.30;99.90
21487;DHT22;10905;50.822;4.336;2023-05-16T06:38:40;11.20;99.90
21487;DHT22;10905;50.822;4.336;2023-05-16T06:41:06;11.30;99.90
21487;DHT22;10905;50.822;4.336;2023-05-16T06:43:31;11.20;99.90
21487;DHT22;10905;50.822;4.336;2023-05-16T06:45:57;11.40;99.90
21487;DHT22;10905;50.822;4.336;2023-05-16T06:48:23;11.60;99.90
21487;DHT22;10905;50.822;4.336;2023-05-16T06:50:49;11.60;99.90
21487;DHT22;10905;50.822;4.336;2023-05-16T06:53:16;11.70;99.90
21487;DHT22;10905;50.822;4.336;2023-05-16T06:55:42;11.80;99.90
21487;DHT22;10905;50.822;4.336;2023-05-16T06:58:07;11.90;99.90
21487;DHT22;10905;50.822;4.336;2023-05-16T07:00:33;12.00;99.90
21487;DHT22;10905;50.822;4.336;2023-05-16T07:02:58;12.20;99.90
21487;DHT22;10905;50.822;4.336;2023-05-16T07:05:24;12.30;99.90
21487;DHT22;10905;50.822;4.336;2023-05-16T07:07:50;12.40;99.90
21487;DHT22;10905;50.822;4.336;2023-05-16T07:10:15;12.40;99.90
21487;DHT22;10905;50.822;4.336;2023-05-16T07:12:41;12.40;99.90
21487;DHT22;10905;50.822;4.336;2023-05-16T07:15:07;12.50;99.90
21487;DHT22;10905;50.822;4.336;2023-05-16T07:17:33;12.60;99.90
21487;DHT22;10905;50.822;4.336;2023-05-16T07:19:58;12.70;99.90
21487;DHT22;10905;50.822;4.336;2023-05-16T07:22:24;12.60;99.90
21487;DHT22;10905;50.822;4.336;2023-05-16T07:24:50;12.60;99.90
21487;DHT22;10905;50.822;4.336;2023-05-16T07:27:18;12.60;99.90
21487;DHT22;10905;50.822;4.336;2023-05-16T07:29:44;12.70;99.90
21487;DHT22;10905;50.822;4.336;2023-05-16T07:32:10;12.70;99.90
21487;DHT22;10905;50.822;4.336;2023-05-16T07:34:35;12.80;99.90
21487;DHT22;10905;50.822;4.336;2023-05-16T07:37:01;12.80;99.90
21487;DHT22;10905;50.822;4.336;2023-05-16T07:39:26;12.80;99.90
21487;DHT22;10905;50.822;4.336;2023-05-16T07:41:52;12.70;99.90
21487;DHT22;10905;50.822;4.336;2023-05-16T07:44:17;12.80;99.90
21487;DHT22;10905;50.822;4.336;2023-05-16T07:46:43;12.90;99.90
21487;DHT22;10905;50.822;4.336;2023-05-16T07:49:09;12.80;99.90
21487;DHT22;10905;50.822;4.336;2023-05-16T07:51:34;12.70;99.90
21487;DHT22;10905;50.822;4.336;2023-05-16T07:54:00;12.70;99.90
21487;DHT22;10905;50.822;4.336;2023-05-16T07:56:26;12.50;99.90
21487;DHT22;10905;50.822;4.336;2023-05-16T07:58:52;12.70;99.90
21487;DHT22;10905;50.822;4.336;2023-05-16T08:01:17;12.50;99.90
21487;DHT22;10905;50.822;4.336;2023-05-16T08:03:43;12.50;99.90
21487;DHT22;10905;50.822;4.336;2023-05-16T08:06:08;12.50;99.90
21487;DHT22;10905;50.822;4.336;2023-05-16T08:08:34;12.60;99.90
21487;DHT22;10905;50.822;4.336;2023-05-16T08:11:00;12.80;99.90
21487;DHT22;10905;50.822;4.336;2023-05-16T08:13:25;12.70;99.90
21487;DHT22;10905;50.822;4.336;2023-05-16T08:15:51;12.70;99.90
21487;DHT22;10905;50.822;4.336;2023-05-16T08:18:16;12.70;99.90
21487;DHT22;10905;50.822;4.336;2023-05-16T08:20:42;12.80;99.90
21487;DHT22;10905;50.822;4.336;2023-05-16T08:23:07;12.90;99.90
21487;DHT22;10905;50.822;4.336;2023-05-16T08:25:33;13.10;99.90
21487;DHT22;10905;50.822;4.336;2023-05-16T08:27:59;13.20;99.90
21487;DHT22;10905;50.822;4.336;2023-05-16T08:30:26;13.50;99.90
21487;DHT22;10905;50.822;4.336;2023-05-16T08:32:51;13.80;99.90
21487;DHT22;10905;50.822;4.336;2023-05-16T08:35:17;13.70;99.90
21487;DHT22;10905;50.822;4.336;2023-05-16T08:37:42;13.50;99.90
21487;DHT22;10905;50.822;4.336;2023-05-16T08:40:08;13.10;99.90
21487;DHT22;10905;50.822;4.336;2023-05-16T08:42:35;12.80;99.90
21487;DHT22;10905;50.822;4.336;2023-05-16T08:45:00;12.80;99.90
21487;DHT22;10905;50.822;4.336;2023-05-16T08:47:26;12.80;99.90
21487;DHT22;10905;50.822;4.336;2023-05-16T08:49:54;12.70;99.90
21487;DHT22;10905;50.822;4.336;2023-05-16T08:52:21;12.50;99.90
21487;DHT22;10905;50.822;4.336;2023-05-16T08:54:49;12.60;99.90
21487;DHT22;10905;50.822;4.336;2023-05-16T08:57:15;12.90;99.90
21487;DHT22;10905;50.822;4.336;2023-05-16T08:59:41;13.10;99.90
21487;DHT22;10905;50.822;4.336;2023-05-16T09:02:07;13.00;99.90
21487;DHT22;10905;50.822;4.336;2023-05-16T09:04:33;13.20;99.90
21487;DHT22;10905;50.822;4.336;2023-05-16T09:06:59;13.10;99.90
21487;DHT22;10905;50.822;4.336;2023-05-16T09:09:25;13.20;99.90
21487;DHT22;10905;50.822;4.336;2023-05-16T09:11:50;13.20;99.90
21487;DHT22;10905;50.822;4.336;2023-05-16T09:14:16;13.40;99.90
21487;DHT22;10905;50.822;4.336;2023-05-16T09:16:43;13.50;99.90
21487;DHT22;10905;50.822;4.336;2023-05-16T09:19:11;13.80;99.90
21487;DHT22;10905;50.822;4.336;2023-05-16T09:21:36;13.80;99.90
21487;DHT22;10905;50.822;4.336;2023-05-16T09:24:02;14.00;99.90
21487;DHT22;10905;50.822;4.336;2023-05-16T09:26:29;14.10;99.90
21487;DHT22;10905;50.822;4.336;2023-05-16T09:28:55;14.20;99.90
21487;DHT22;10905;50.822;4.336;2023-05-16T09:31:22;14.30;99.90
21487;DHT22;10905;50.822;4.336;2023-05-16T09:33:56;14.20;99.90
21487;DHT22;10905;50.822;4.336;2023-05-16T09:36:22;13.90;99.90
21487;DHT22;10905;50.822;4.336;2023-05-16T09:38:51;13.70;99.90
21487;DHT22;10905;50.822;4.336;2023-05-16T09:41:17;13.80;99.90
21487;DHT22;10905;50.822;4.336;2023-05-16T09:43:43;13.90;99.90
21487;DHT22;10905;50.822;4.336;2023-05-16T09:46:15;14.20;99.90
21487;DHT22;10905;50.822;4.336;2023-05-16T09:48:41;14.60;99.90
21487;DHT22;10905;50.822;4.336;2023-05-16T09:51:08;14.50;99.90
21487;DHT22;10905;50.822;4.336;2023-05-16T09:53:35;14.30;99.90
21487;DHT22;10905;50.822;4.336;2023-05-16T09:56:05;14.40;99.90
21487;DHT22;10905;50.822;4.336;2023-05-16T09:58:33;14.40;99.90
21487;DHT22;10905;50.822;4.336;2023-05-16T10:00:59;14.10;99.90
21487;DHT22;10905;50.822;4.336;2023-05-16T10:03:25;13.90;99.90
21487;DHT22;10905;50.822;4.336;2023-05-16T10:05:51;14.00;99.90
21487;DHT22;10905;50.822;4.336;2023-05-16T10:08:21;14.20;99.90
21487;DHT22;10905;50.822;4.336;2023-05-16T10:10:50;14.60;99.90
21487;DHT22;10905;50.822;4.336;2023-05-16T10:13:20;14.80;99.90
21487;DHT22;10905;50.822;4.336;2023-05-16T10:15:46;14.80;99.90
21487;DHT22;10905;50.822;4.336;2023-05-16T10:18:12;14.90;99.90
21487;DHT22;10905;50.822;4.336;2023-05-16T10:20:40;14.80;99.90
21487;DHT22;10905;50.822;4.336;2023-05-16T10:23:06;14.80;99.90
21487;DHT22;10905;50.822;4.336;2023-05-16T10:25:35;14.90;99.90
21487;DHT22;10905;50.822;4.336;2023-05-16T10:28:03;14.80;99.90
21487;DHT22;10905;50.822;4.336;2023-05-16T10:30:30;14.90;99.90
21487;DHT22;10905;50.822;4.336;2023-05-16T10:32:55;14.90;99.90
21487;DHT22;10905;50.822;4.336;2023-05-16T10:35:21;14.70;99.90
21487;DHT22;10905;50.822;4.336;2023-05-16T10:37:47;14.80;99.90
21487;DHT22;10905;50.822;4.336;2023-05-16T10:40:14;14.70;99.90
21487;DHT22;10905;50.822;4.336;2023-05-16T10:42:43;15.00;99.90
21487;DHT22;10905;50.822;4.336;2023-05-16T10:45:18;15.00;99.90
21487;DHT22;10905;50.822;4.336;2023-05-16T10:47:51;15.10;99.90
21487;DHT22;10905;50.822;4.336;2023-05-16T10:50:29;15.00;99.90
21487;DHT22;10905;50.822;4.336;2023-05-16T10:52:55;15.10;99.90
21487;DHT22;10905;50.822;4.336;2023-05-16T10:55:20;15.20;99.90
21487;DHT22;10905;50.822;4.336;2023-05-16T10:57:46;15.10;99.90
21487;DHT22;10905;50.822;4.336;2023-05-16T11:00:20;15.10;99.90
21487;DHT22;10905;50.822;4.336;2023-05-16T11:02:46;15.10;99.90
21487;DHT22;10905;50.822;4.336;2023-05-16T11:05:12;15.20;99.90
21487;DHT22;10905;50.822;4.336;2023-05-16T11:07:38;15.30;99.90
21487;DHT22;10905;50.822;4.336;2023-05-16T11:10:07;15.40;99.90
21487;DHT22;10905;50.822;4.336;2023-05-16T11:12:37;15.50;99.90
21487;DHT22;10905;50.822;4.336;2023-05-16T11:15:16;15.70;99.90
21487;DHT22;10905;50.822;4.336;2023-05-16T11:17:41;15.80;99.90
21487;DHT22;10905;50.822;4.336;2023-05-16T11:20:07;15.80;99.90
21487;DHT22;10905;50.822;4.336;2023-05-16T11:22:48;15.60;99.90
21487;DHT22;10905;50.822;4.336;2023-05-16T11:25:14;15.60;99.90
21487;DHT22;10905;50.822;4.336;2023-05-16T11:27:43;15.40;99.90
21487;DHT22;10905;50.822;4.336;2023-05-16T11:32:38;15.60;99.90
21487;DHT22;10905;50.822;4.336;2023-05-16T11:35:04;15.80;99.90
21487;DHT22;10905;50.822;4.336;2023-05-16T11:37:31;15.80;99.90
21487;DHT22;10905;50.822;4.336;2023-05-16T11:40:00;15.90;99.90
21487;DHT22;10905;50.822;4.336;2023-05-16T11:42:29;15.60;99.90
21487;DHT22;10905;50.822;4.336;2023-05-16T11:47:51;15.60;99.90
21487;DHT22;10905;50.822;4.336;2023-05-16T11:50:20;15.80;99.90
21487;DHT22;10905;50.822;4.336;2023-05-16T11:52:51;15.90;99.90
21487;DHT22;10905;50.822;4.336;2023-05-16T11:55:19;15.90;99.90
21487;DHT22;10905;50.822;4.336;2023-05-16T11:57:45;15.70;99.90
21487;DHT22;10905;50.822;4.336;2023-05-16T12:00:14;15.80;99.90
21487;DHT22;10905;50.822;4.336;2023-05-16T12:02:41;15.80;99.90
21487;DHT22;10905;50.822;4.336;2023-05-16T12:05:07;15.90;99.90
21487;DHT22;10905;50.822;4.336;2023-05-16T12:07:33;16.00;99.90
21487;DHT22;10905;50.822;4.336;2023-05-16T12:10:03;16.00;99.90
21487;DHT22;10905;50.822;4.336;2023-05-16T12:12:28;16.30;99.90
21487;DHT22;10905;50.822;4.336;2023-05-16T12:14:54;16.50;99.90
21487;DHT22;10905;50.822;4.336;2023-05-16T12:17:20;16.50;99.90
21487;DHT22;10905;50.822;4.336;2023-05-16T12:19:46;16.30;99.90
21487;DHT22;10905;50.822;4.336;2023-05-16T12:22:14;16.20;99.90
21487;DHT22;10905;50.822;4.336;2023-05-16T12:24:40;16.20;99.90
21487;DHT22;10905;50.822;4.336;2023-05-16T12:27:06;16.30;99.90
21487;DHT22;10905;50.822;4.336;2023-05-16T12:29:32;16.00;99.90
21487;DHT22;10905;50.822;4.336;2023-05-16T12:31:58;16.10;99.90
21487;DHT22;10905;50.822;4.336;2023-05-16T12:34:27;16.20;99.90
21487;DHT22;10905;50.822;4.336;2023-05-16T12:36:52;15.90;99.90
21487;DHT22;10905;50.822;4.336;2023-05-16T12:39:18;15.40;99.90
21487;DHT22;10905;50.822;4.336;2023-05-16T12:41:44;15.40;99.90
21487;DHT22;10905;50.822;4.336;2023-05-16T12:44:16;15.60;99.90
21487;DHT22;10905;50.822;4.336;2023-05-16T12:46:48;15.90;99.90
21487;DHT22;10905;50.822;4.336;2023-05-16T12:49:14;16.20;99.90
21487;DHT22;10905;50.822;4.336;2023-05-16T12:51:39;16.20;99.90
21487;DHT22;10905;50.822;4.336;2023-05-16T12:54:08;16.20;99.90
21487;DHT22;10905;50.822;4.336;2023-05-16T12:56:39;16.20;99.90
21487;DHT22;10905;50.822;4.336;2023-05-16T12:59:05;16.40;99.90
21487;DHT22;10905;50.822;4.336;2023-05-16T13:01:31;16.50;99.90
21487;DHT22;10905;50.822;4.336;2023-05-16T13:03:56;16.60;99.90
21487;DHT22;10905;50.822;4.336;2023-05-16T13:06:22;16.60;99.90
21487;DHT22;10905;50.822;4.336;2023-05-16T13:08:48;16.50;99.40
21487;DHT22;10905;50.822;4.336;2023-05-16T13:11:13;16.40;99.60
21487;DHT22;10905;50.822;4.336;2023-05-16T13:13:39;16.30;99.90
21487;DHT22;10905;50.822;4.336;2023-05-16T13:16:04;16.20;99.90
21487;DHT22;10905;50.822;4.336;2023-05-16T13:18:30;16.30;99.90
21487;DHT22;10905;50.822;4.336;2023-05-16T13:20:56;16.30;99.90
21487;DHT22;10905;50.822;4.336;2023-05-16T13:23:21;16.40;99.90
21487;DHT22;10905;50.822;4.336;2023-05-16T13:25:47;16.20;99.90
21487;DHT22;10905;50.822;4.336;2023-05-16T13:28:13;16.20;99.90
21487;DHT22;10905;50.822;4.336;2023-05-16T13:30:38;16.10;99.90
21487;DHT22;10905;50.822;4.336;2023-05-16T13:33:04;16.10;99.90
21487;DHT22;10905;50.822;4.336;2023-05-16T13:35:29;16.20;99.90
21487;DHT22;10905;50.822;4.336;2023-05-16T13:37:55;16.30;99.90
21487;DHT22;10905;50.822;4.336;2023-05-16T13:40:20;16.10;99.90
21487;DHT22;10905;50.822;4.336;2023-05-16T13:42:46;16.10;99.90
21487;DHT22;10905;50.822;4.336;2023-05-16T13:45:11;16.30;99.90
21487;DHT22;10905;50.822;4.336;2023-05-16T13:47:37;16.40;99.90
21487;DHT22;10905;50.822;4.336;2023-05-16T13:50:02;16.30;99.90
21487;DHT22;10905;50.822;4.336;2023-05-16T13:52:32;16.20;99.90
21487;DHT22;10905;50.822;4.336;2023-05-16T13:54:57;16.40;99.90
21487;DHT22;10905;50.822;4.336;2023-05-16T13:57:23;16.70;99.90
21487;DHT22;10905;50.822;4.336;2023-05-16T13:59:49;16.80;99.90
21487;DHT22;10905;50.822;4.336;2023-05-16T14:02:14;17.00;99.90
21487;DHT22;10905;50.822;4.336;2023-05-16T14:04:40;17.10;99.90
21487;DHT22;10905;50.822;4.336;2023-05-16T14:07:05;17.20;99.90
21487;DHT22;10905;50.822;4.336;2023-05-16T14:09:31;17.30;99.90
21487;DHT22;10905;50.822;4.336;2023-05-16T14:11:59;17.20;98.30
21487;DHT22;10905;50.822;4.336;2023-05-16T14:14:27;17.20;98.90
21487;DHT22;10905;50.822;4.336;2023-05-16T14:16:52;17.40;97.70
21487;DHT22;10905;50.822;4.336;2023-05-16T14:19:18;17.00;97.30
21487;DHT22;10905;50.822;4.336;2023-05-16T14:21:43;16.70;98.40
21487;DHT22;10905;50.822;4.336;2023-05-16T14:24:09;16.80;98.70
21487;DHT22;10905;50.822;4.336;2023-05-16T14:26:34;17.00;99.90
21487;DHT22;10905;50.822;4.336;2023-05-16T14:29:00;17.30;99.90
21487;DHT22;10905;50.822;4.336;2023-05-16T14:31:25;17.30;99.10
21487;DHT22;10905;50.822;4.336;2023-05-16T14:33:51;17.20;97.90
21487;DHT22;10905;50.822;4.336;2023-05-16T14:36:16;17.30;99.60
21487;DHT22;10905;50.822;4.336;2023-05-16T14:38:42;17.30;98.10
21487;DHT22;10905;50.822;4.336;2023-05-16T14:41:08;17.10;97.20
21487;DHT22;10905;50.822;4.336;2023-05-16T14:43:33;16.70;97.70
21487;DHT22;10905;50.822;4.336;2023-05-16T14:45:59;16.50;98.40
21487;DHT22;10905;50.822;4.336;2023-05-16T14:48:24;16.50;99.90
21487;DHT22;10905;50.822;4.336;2023-05-16T14:50:50;16.50;99.90
21487;DHT22;10905;50.822;4.336;2023-05-16T14:53:16;16.50;99.90
21487;DHT22;10905;50.822;4.336;2023-05-16T14:55:41;16.50;99.20
21487;DHT22;10905;50.822;4.336;2023-05-16T14:58:07;16.30;99.90
21487;DHT22;10905;50.822;4.336;2023-05-16T15:00:32;16.20;99.90
21487;DHT22;10905;50.822;4.336;2023-05-16T15:02:58;16.30;99.90
21487;DHT22;10905;50.822;4.336;2023-05-16T15:05:23;16.30;99.90
21487;DHT22;10905;50.822;4.336;2023-05-16T15:07:50;16.10;99.90
21487;DHT22;10905;50.822;4.336;2023-05-16T15:10:15;16.20;99.90
21487;DHT22;10905;50.822;4.336;2023-05-16T15:12:41;16.30;99.90
21487;DHT22;10905;50.822;4.336;2023-05-16T15:15:08;16.30;99.90
21487;DHT22;10905;50.822;4.336;2023-05-16T15:17:36;16.70;99.90
21487;DHT22;10905;50.822;4.336;2023-05-16T15:20:02;16.60;99.90
21487;DHT22;10905;50.822;4.336;2023-05-16T15:22:28;16.80;99.90
21487;DHT22;10905;50.822;4.336;2023-05-16T15:24:53;17.00;99.90
21487;DHT22;10905;50.822;4.336;2023-05-16T15:27:19;17.30;99.90
21487;DHT22;10905;50.822;4.336;2023-05-16T15:29:44;17.80;99.90
21487;DHT22;10905;50.822;4.336;2023-05-16T15:32:10;18.10;99.90
21487;DHT22;10905;50.822;4.336;2023-05-16T15:34:37;17.90;99.60
21487;DHT22;10905;50.822;4.336;2023-05-16T15:37:03;17.80;98.70
21487;DHT22;10905;50.822;4.336;2023-05-16T15:39:28;17.40;98.70